createdAt,value
2023-01-08T00:09:11.332Z,84.6
2023-01-08T00:24:20.989Z,84.6
2023-01-08T00:39:30.903Z,84.6
2023-01-08T00:54:41.235Z,84.7
2023-01-08T01:09:51.169Z,84.6
2023-01-08T01:25:01.132Z,84.6
2023-01-08T01:40:11.339Z,84.6
2023-01-08T01:55:21.582Z,84.6
2023-01-08T02:10:31.610Z,84.7
2023-01-08T02:25:41.775Z,84.7
2023-01-08T02:40:51.999Z,84.7
2023-01-08T02:56:01.831Z,84.7
2023-01-08T03:11:12.175Z,84.2
2023-01-08T03:26:22.505Z,84.5
2023-01-08T03:41:32.640Z,84.4
2023-01-08T03:56:42.692Z,84.3
2023-01-08T04:11:53.657Z,84.4
2023-01-08T04:27:03.778Z,84.5
2023-01-08T04:42:14.339Z,84.5
2023-01-08T04:57:25.273Z,85.2
2023-01-08T05:12:35.579Z,84.5
2023-01-08T05:27:48.791Z,84.6
2023-01-08T05:42:59.028Z,84.8
2023-01-08T05:58:10.189Z,84.9
2023-01-08T06:13:20.756Z,85
2023-01-08T06:28:32.093Z,85.1
2023-01-08T06:43:42.657Z,85.2
2023-01-08T06:58:56.253Z,85.3
2023-01-08T07:14:06.817Z,85.4
2023-01-08T07:29:19.831Z,85.5
2023-01-08T07:44:30.175Z,85.7
2023-01-08T07:59:40.193Z,85.8
2023-01-08T08:14:50.128Z,85.9
2023-01-08T08:30:00.183Z,85.9
2023-01-08T08:45:10.608Z,86
2023-01-08T09:00:20.252Z,86.1
2023-01-08T09:15:30.172Z,86.1
2023-01-08T09:30:40.195Z,86.1
2023-01-08T09:45:50.460Z,86.1
2023-01-08T10:01:00.806Z,86.2
2023-01-08T10:16:10.907Z,86.8
2023-01-08T10:31:21.699Z,85.9
2023-01-08T10:46:31.542Z,85.9
2023-01-08T11:01:41.800Z,85.9
2023-01-08T11:16:51.225Z,85.6
2023-01-08T11:32:01.078Z,85.5
2023-01-08T11:47:11.174Z,85.1
2023-01-08T12:02:21.255Z,84.6
2023-01-08T12:17:30.991Z,83.6
2023-01-08T12:32:40.555Z,83.1
2023-01-08T12:47:49.882Z,82.7
2023-01-08T13:02:59.937Z,82.4
2023-01-08T13:18:09.876Z,82.3
2023-01-08T13:33:19.874Z,82.3
2023-01-08T13:48:29.436Z,83.1
2023-01-08T14:03:39.158Z,83
2023-01-08T14:18:48.795Z,82.9
2023-01-08T14:33:58.461Z,83
2023-01-08T14:49:11.052Z,83.3
2023-01-08T15:04:20.219Z,83.5
2023-01-08T15:19:29.709Z,83.7
2023-01-08T15:34:39.417Z,83.9
2023-01-08T15:49:48.823Z,84
2023-01-08T16:04:58.272Z,84.3
2023-01-08T16:20:07.581Z,84.4
2023-01-08T16:35:19.767Z,84.4
2023-01-08T16:50:29.721Z,84.3
2023-01-08T17:05:38.522Z,85.5
2023-01-08T17:20:47.665Z,86.1
2023-01-08T17:35:57.298Z,86
2023-01-08T17:51:10.114Z,86.1
2023-01-08T18:06:19.814Z,86
2023-01-08T18:21:29.427Z,86.1
2023-01-08T18:36:38.837Z,86.7
2023-01-08T18:51:48.414Z,86.4
2023-01-08T19:06:57.986Z,86.4
2023-01-08T19:22:07.217Z,86.4
2023-01-08T19:37:19.580Z,86.4
2023-01-08T19:52:28.838Z,86.5
2023-01-08T20:07:39.337Z,86.5
2023-01-08T20:22:48.628Z,86.6
2023-01-08T20:37:58.363Z,86.6
2023-01-08T20:53:07.916Z,86.7
2023-01-08T21:08:20.467Z,86.6
2023-01-08T21:23:31.052Z,87
2023-01-08T21:38:40.182Z,86.7
2023-01-08T21:53:49.565Z,86.7
2023-01-08T22:08:59.619Z,86.6
2023-01-08T22:24:09.290Z,86.6
2023-01-08T22:39:19.814Z,86.6
2023-01-08T22:54:28.913Z,86.7
2023-01-08T23:09:38.556Z,86.6
2023-01-08T23:24:48.384Z,86.6
2023-01-08T23:39:58.089Z,86.5
2023-01-08T23:55:07.708Z,86.4
